createdAt,value
2022-08-10T00:01:34.325Z,2.70
2022-08-10T00:04:01.419Z,2.10
2022-08-10T00:06:28.008Z,1.90
2022-08-10T00:08:54.491Z,2.17
2022-08-10T00:11:20.959Z,2.33
2022-08-10T00:13:47.868Z,2.30
2022-08-10T00:16:14.395Z,1.80
2022-08-10T00:18:40.872Z,2.05
2022-08-10T00:21:09.483Z,2.40
2022-08-10T00:23:37.090Z,2.25
2022-08-10T00:26:04.933Z,2.33
2022-08-10T00:28:31.546Z,2.08
2022-08-10T00:30:58.142Z,2.60
2022-08-10T00:33:24.568Z,2.05
2022-08-10T00:35:51.118Z,2.53
2022-08-10T00:38:17.664Z,2.28
2022-08-10T00:40:44.177Z,2.63
2022-08-10T00:43:10.715Z,2.42
2022-08-10T00:45:37.185Z,2.30
2022-08-10T00:48:04.100Z,2.60
2022-08-10T00:50:30.772Z,2.05
2022-08-10T00:52:57.675Z,2.15
2022-08-10T00:55:24.655Z,2.25
2022-08-10T00:57:55.413Z,2.22
2022-08-10T01:00:23.336Z,2.40
2022-08-10T01:02:49.954Z,2.40
2022-08-10T01:05:16.803Z,2.50
2022-08-10T01:08:20.436Z,2.47
2022-08-10T01:11:02.727Z,2.28
2022-08-10T01:13:38.040Z,1.98
2022-08-10T01:16:46.591Z,1.90
2022-08-10T01:19:35.107Z,2.08
2022-08-10T01:22:30.152Z,2.20
2022-08-10T01:25:14.683Z,1.90
2022-08-10T01:27:59.244Z,2.53
2022-08-10T01:30:30.326Z,2.15
2022-08-10T01:33:06.370Z,1.95
2022-08-10T01:36:02.186Z,2.15
2022-08-10T01:38:34.476Z,2.28
2022-08-10T01:41:14.144Z,2.05
2022-08-10T01:43:50.001Z,2.15
2022-08-10T01:46:19.149Z,2.00
2022-08-10T01:48:53.085Z,2.15
2022-08-10T01:51:30.957Z,2.35
2022-08-10T01:54:12.159Z,2.42
2022-08-10T01:56:43.224Z,1.92
2022-08-10T01:59:15.570Z,2.30
2022-08-10T02:01:50.398Z,2.03
2022-08-10T02:04:20.651Z,2.08
2022-08-10T02:06:52.318Z,1.95
2022-08-10T02:09:31.810Z,2.00
2022-08-10T02:12:08.512Z,2.53
2022-08-10T02:14:40.451Z,2.03
2022-08-10T02:17:59.093Z,2.08
2022-08-10T02:20:04.253Z,2.58
2022-08-10T02:22:36.901Z,2.28
2022-08-10T02:25:07.886Z,2.40
2022-08-10T02:27:35.887Z,2.47
2022-08-10T02:30:05.179Z,2.40
2022-08-10T02:32:38.529Z,2.20
2022-08-10T02:35:21.900Z,2.58
2022-08-10T02:37:52.814Z,2.35
2022-08-10T02:45:15.846Z,2.40
2022-08-10T02:45:17.969Z,2.35
2022-08-10T02:46:18.265Z,2.30
2022-08-10T02:48:53.813Z,2.10
2022-08-10T02:52:07.022Z,2.78
2022-08-10T02:54:24.466Z,2.47
2022-08-10T02:56:56.307Z,2.15
2022-08-10T02:59:39.786Z,2.28
2022-08-10T03:02:10.402Z,2.00
2022-08-10T03:04:54.871Z,2.30
2022-08-10T03:07:42.513Z,2.38
2022-08-10T03:10:16.510Z,2.67
2022-08-10T03:12:45.562Z,2.40
2022-08-10T03:15:15.841Z,2.25
2022-08-10T03:17:57.895Z,2.03
2022-08-10T03:20:39.487Z,2.30
2022-08-10T03:23:12.848Z,2.40
2022-08-10T03:25:39.824Z,2.40
2022-08-10T03:28:07.282Z,2.33
2022-08-10T03:30:34.523Z,2.05
2022-08-10T03:33:04.375Z,2.30
2022-08-10T03:35:31.374Z,2.38
2022-08-10T03:37:59.433Z,2.78
2022-08-10T03:40:45.784Z,2.40
2022-08-10T03:43:20.499Z,2.45
2022-08-10T03:45:56.297Z,2.50
2022-08-10T03:48:33.119Z,2.35
2022-08-10T03:51:13.476Z,2.15
2022-08-10T03:54:02.805Z,2.60
2022-08-10T03:56:31.997Z,2.53
2022-08-10T03:58:59.804Z,2.05
2022-08-10T04:02:44.273Z,2.80
2022-08-10T04:04:17.811Z,2.50
2022-08-10T04:06:47.566Z,2.47
2022-08-10T04:09:18.147Z,2.83
2022-08-10T04:11:46.401Z,2.50
2022-08-10T04:14:47.593Z,2.63
2022-08-10T04:16:59.454Z,2.50
2022-08-10T04:19:29.271Z,2.67
2022-08-10T04:22:10.335Z,2.67
2022-08-10T04:24:39.376Z,2.85
2022-08-10T04:27:06.075Z,2.58
2022-08-10T04:29:32.922Z,3.72
2022-08-10T04:32:02.942Z,3.03
2022-08-10T04:34:34.073Z,2.85
2022-08-10T04:37:08.850Z,3.17
2022-08-10T04:39:35.743Z,2.45
2022-08-10T04:42:03.148Z,2.50
2022-08-10T04:44:29.884Z,2.70
2022-08-10T04:46:58.327Z,2.80
2022-08-10T04:49:55.343Z,2.95
2022-08-10T04:52:13.400Z,2.80
2022-08-10T04:54:39.853Z,2.67
2022-08-10T04:57:06.471Z,2.50
2022-08-10T04:59:33.041Z,2.67
2022-08-10T05:02:22.035Z,2.47
2022-08-10T05:04:46.079Z,2.85
2022-08-10T05:07:16.430Z,2.47
2022-08-10T05:10:03.044Z,2.78
2022-08-10T05:12:37.803Z,2.42
2022-08-10T05:15:09.481Z,2.88
2022-08-10T05:17:36.932Z,2.67
2022-08-10T05:20:08.604Z,2.80
2022-08-10T05:22:41.065Z,2.75
2022-08-10T05:25:10.663Z,2.88
2022-08-10T05:27:37.315Z,2.75
2022-08-10T05:30:05.185Z,2.63
2022-08-10T05:32:56.389Z,2.40
2022-08-10T05:35:20.686Z,2.53
2022-08-10T05:38:09.087Z,2.70
2022-08-10T05:40:35.157Z,2.60
2022-08-10T05:43:01.691Z,2.55
2022-08-10T05:45:28.132Z,2.85
2022-08-10T05:48:57.252Z,2.70
2022-08-10T05:50:41.567Z,2.33
2022-08-10T05:53:59.360Z,2.97
2022-08-10T05:55:55.126Z,2.33
2022-08-10T05:58:22.087Z,2.30
2022-08-10T06:00:55.366Z,1.83
2022-08-10T06:03:29.743Z,2.22
2022-08-10T06:05:58.679Z,2.22
2022-08-10T06:08:28.567Z,2.30
2022-08-10T06:12:28.315Z,2.38
2022-08-10T06:14:12.688Z,2.30
2022-08-10T06:16:42.088Z,2.40
2022-08-10T06:19:10.859Z,2.13
2022-08-10T06:21:41.308Z,2.50
2022-08-10T06:24:30.685Z,2.45
2022-08-10T06:26:58.634Z,2.03
2022-08-10T06:29:28.300Z,2.15
2022-08-10T06:31:56.304Z,2.20
2022-08-10T06:34:27.716Z,1.90
2022-08-10T06:36:57.477Z,2.08
2022-08-10T06:39:39.574Z,2.25
2022-08-10T06:42:17.704Z,2.42
2022-08-10T06:45:06.000Z,2.10
2022-08-10T06:47:46.556Z,2.30
2022-08-10T06:50:45.433Z,2.10
2022-08-10T06:53:21.265Z,2.10
2022-08-10T06:55:59.648Z,2.00
2022-08-10T06:58:32.232Z,2.03
2022-08-10T07:01:02.884Z,2.42
2022-08-10T07:03:36.479Z,2.00
2022-08-10T07:06:05.278Z,2.08
2022-08-10T07:08:33.714Z,1.80
2022-08-10T07:11:02.335Z,2.22
2022-08-10T07:14:15.527Z,2.00
2022-08-10T07:16:19.695Z,2.42
2022-08-10T07:18:48.144Z,2.50
2022-08-10T07:21:15.622Z,2.30
2022-08-10T07:23:58.221Z,2.40
2022-08-10T07:26:28.617Z,2.25
2022-08-10T07:28:55.886Z,2.63
2022-08-10T07:31:29.671Z,2.30
2022-08-10T07:34:11.394Z,2.13
2022-08-10T07:36:40.625Z,2.00
2022-08-10T07:39:08.861Z,2.45
2022-08-10T07:41:41.035Z,2.00
2022-08-10T07:44:09.824Z,2.20
2022-08-10T07:46:40.873Z,2.20
2022-08-10T07:49:15.516Z,2.08
2022-08-10T07:51:54.591Z,1.90
2022-08-10T07:54:25.022Z,2.35
2022-08-10T07:56:57.125Z,2.10
2022-08-10T07:59:35.732Z,1.70
2022-08-10T08:02:04.987Z,1.80
2022-08-10T08:04:33.032Z,1.85
2022-08-10T08:07:03.346Z,2.00
2022-08-10T08:09:31.713Z,1.60
2022-08-10T08:12:00.122Z,2.00
2022-08-10T08:14:27.361Z,1.90
2022-08-10T08:16:55.573Z,1.88
2022-08-10T08:19:35.913Z,1.98
2022-08-10T08:24:06.972Z,1.70
2022-08-10T08:24:57.522Z,1.77
2022-08-10T08:27:26.016Z,1.98
2022-08-10T08:29:53.581Z,1.73
2022-08-10T08:32:23.578Z,2.10
2022-08-10T08:34:57.570Z,1.73
2022-08-10T08:38:31.828Z,2.03
2022-08-10T08:40:30.153Z,1.98
2022-08-10T08:43:18.111Z,1.60
2022-08-10T08:46:01.123Z,2.03
2022-08-10T08:49:06.135Z,1.40
2022-08-10T08:52:09.199Z,1.48
2022-08-10T08:55:02.895Z,1.45
2022-08-10T08:57:50.895Z,1.55
2022-08-10T09:00:42.130Z,1.45
2022-08-10T09:03:29.611Z,1.88
2022-08-10T09:06:25.825Z,1.38
2022-08-10T09:09:29.999Z,1.63
2022-08-10T09:12:05.806Z,1.42
2022-08-10T09:14:49.116Z,1.30
2022-08-10T09:17:32.535Z,1.52
2022-08-10T09:20:08.275Z,1.40
2022-08-10T09:22:44.846Z,1.60
2022-08-10T09:25:23.553Z,1.50
2022-08-10T09:28:05.394Z,1.27
2022-08-10T09:30:52.383Z,1.50
2022-08-10T09:36:24.978Z,0.90
2022-08-10T09:37:06.531Z,0.90
2022-08-10T09:40:06.667Z,1.00
2022-08-10T09:43:14.285Z,1.10
2022-08-10T09:46:13.272Z,1.20
2022-08-10T09:49:00.960Z,0.90
2022-08-10T09:51:50.741Z,0.90
2022-08-10T09:54:42.398Z,0.88
2022-08-10T09:57:43.358Z,1.10
2022-08-10T10:00:14.374Z,0.90
2022-08-10T10:03:00.008Z,0.70
2022-08-10T10:05:52.575Z,1.08
2022-08-10T10:08:43.060Z,0.98
2022-08-10T10:11:17.808Z,0.98
2022-08-10T10:14:03.378Z,0.80
2022-08-10T10:16:57.735Z,1.35
2022-08-10T10:20:02.846Z,0.75
2022-08-10T10:22:42.621Z,1.10
2022-08-10T10:25:50.016Z,1.05
2022-08-10T10:28:59.775Z,1.00
2022-08-10T10:31:28.665Z,0.70
2022-08-10T10:34:21.450Z,1.00
2022-08-10T10:36:51.470Z,0.90
2022-08-10T10:39:24.152Z,1.05
2022-08-10T10:42:35.042Z,0.85
2022-08-10T10:45:20.720Z,0.63
2022-08-10T10:48:24.254Z,0.85
2022-08-10T10:51:19.012Z,0.60
2022-08-10T10:54:10.458Z,0.73
2022-08-10T10:56:58.126Z,0.55
2022-08-10T10:59:55.051Z,0.47
2022-08-10T11:02:41.882Z,0.47
2022-08-10T11:05:37.803Z,0.70
2022-08-10T11:08:14.672Z,0.40
2022-08-10T11:10:52.649Z,0.52
2022-08-10T11:14:25.726Z,0.60
2022-08-10T11:16:38.605Z,0.47
2022-08-10T11:19:17.606Z,0.40
2022-08-10T11:22:15.910Z,0.38
2022-08-10T11:24:58.515Z,0.30
2022-08-10T11:27:27.706Z,0.40
2022-08-10T11:30:12.664Z,0.68
2022-08-10T11:33:30.729Z,0.43
2022-08-10T11:36:56.331Z,0.47
2022-08-10T11:39:31.532Z,0.30
2022-08-10T11:42:26.575Z,0.40
2022-08-10T11:45:10.068Z,0.38
2022-08-10T11:47:47.403Z,0.50
2022-08-10T11:50:34.805Z,0.68
2022-08-10T11:53:17.448Z,0.30
2022-08-10T11:55:49.292Z,0.82
2022-08-10T11:58:36.151Z,0.30
2022-08-10T12:01:06.496Z,0.40
2022-08-10T12:03:36.413Z,0.22
2022-08-10T12:06:05.911Z,1.25
2022-08-10T12:10:03.550Z,0.55
2022-08-10T12:11:26.388Z,0.40
2022-08-10T12:14:22.599Z,0.30
2022-08-10T12:17:01.930Z,0.45
2022-08-10T12:20:02.344Z,0.47
2022-08-10T12:22:59.839Z,0.22
2022-08-10T12:25:55.724Z,0.40
2022-08-10T12:28:49.893Z,0.40
2022-08-10T12:31:23.144Z,0.40
2022-08-10T12:34:01.800Z,0.30
2022-08-10T12:36:39.643Z,0.30
2022-08-10T12:39:14.766Z,0.47
2022-08-10T12:42:02.804Z,0.50
2022-08-10T12:44:42.231Z,0.40
2022-08-10T12:47:24.376Z,0.30
2022-08-10T12:50:26.726Z,0.40
2022-08-10T12:53:41.049Z,0.52
2022-08-10T12:56:07.770Z,0.43
2022-08-10T12:58:59.928Z,0.40
2022-08-10T13:02:09.597Z,0.50
2022-08-10T13:04:22.757Z,0.40
2022-08-10T13:06:51.509Z,0.43
2022-08-10T13:09:25.210Z,0.30
2022-08-10T13:12:35.625Z,0.45
2022-08-10T13:15:45.946Z,0.50
2022-08-10T13:18:02.899Z,0.40
2022-08-10T13:20:35.183Z,0.40
2022-08-10T13:23:09.991Z,0.57
2022-08-10T13:25:39.136Z,0.70
2022-08-10T13:28:36.879Z,0.50
2022-08-10T13:31:03.501Z,0.90
2022-08-10T13:34:39.683Z,0.60
2022-08-10T13:36:28.589Z,0.50
2022-08-10T13:38:57.130Z,0.57
2022-08-10T13:41:34.951Z,0.80
2022-08-10T13:44:01.736Z,0.70
2022-08-10T13:46:29.125Z,0.77
2022-08-10T13:48:59.864Z,0.95
2022-08-10T13:51:53.641Z,0.80
2022-08-10T13:54:17.331Z,0.82
2022-08-10T13:56:47.300Z,0.68
2022-08-10T13:59:16.486Z,0.93
2022-08-10T14:01:49.459Z,0.90
2022-08-10T14:04:18.110Z,1.00
2022-08-10T14:06:53.024Z,1.10
2022-08-10T14:09:24.818Z,1.02
2022-08-10T14:11:53.858Z,0.80
2022-08-10T14:14:21.808Z,0.85
2022-08-10T14:16:49.787Z,1.00
2022-08-10T14:19:21.146Z,1.00
2022-08-10T14:21:49.131Z,0.98
2022-08-10T14:24:26.315Z,0.88
2022-08-10T14:27:11.764Z,1.15
2022-08-10T14:29:47.862Z,1.17
2022-08-10T14:32:17.733Z,1.42
2022-08-10T14:36:16.786Z,1.08
2022-08-10T14:37:39.483Z,0.88
2022-08-10T14:40:20.996Z,1.20
2022-08-10T14:42:53.828Z,1.30
2022-08-10T14:45:28.406Z,0.95
2022-08-10T14:48:17.261Z,1.10
2022-08-10T14:50:55.442Z,0.98
2022-08-10T14:53:27.000Z,1.00
2022-08-10T14:56:00.979Z,0.73
2022-08-10T14:58:38.537Z,0.90
2022-08-10T15:01:06.943Z,1.30
2022-08-10T15:03:59.145Z,0.90
2022-08-10T15:06:30.258Z,0.98
2022-08-10T15:09:31.235Z,0.98
2022-08-10T15:12:21.827Z,0.90
2022-08-10T15:14:58.294Z,0.93
2022-08-10T15:17:35.187Z,1.17
2022-08-10T15:20:14.836Z,1.15
2022-08-10T15:22:47.062Z,1.30
2022-08-10T15:25:24.809Z,1.20
2022-08-10T15:28:05.071Z,1.30
2022-08-10T15:30:39.603Z,1.23
2022-08-10T15:33:57.063Z,0.95
2022-08-10T15:36:37.426Z,1.10
2022-08-10T15:40:25.764Z,1.55
2022-08-10T15:42:17.374Z,1.10
2022-08-10T15:44:46.178Z,2.25
2022-08-10T15:47:24.446Z,1.30
2022-08-10T15:50:04.391Z,1.50
2022-08-10T15:53:02.138Z,1.40
2022-08-10T15:55:43.191Z,1.42
2022-08-10T15:58:19.817Z,1.20
2022-08-10T16:00:55.496Z,1.08
2022-08-10T16:03:29.549Z,1.05
2022-08-10T16:06:01.658Z,1.23
2022-08-10T16:08:56.115Z,1.30
2022-08-10T16:11:42.877Z,1.35
2022-08-10T16:14:13.416Z,1.20
2022-08-10T16:16:41.865Z,1.35
2022-08-10T16:19:23.890Z,1.00
2022-08-10T16:22:02.720Z,1.17
2022-08-10T16:24:50.418Z,1.05
2022-08-10T16:27:26.406Z,1.63
2022-08-10T16:30:02.176Z,1.05
2022-08-10T16:32:30.661Z,1.60
2022-08-10T16:34:59.280Z,1.25
2022-08-10T16:37:56.580Z,1.30
2022-08-10T16:40:26.739Z,1.40
2022-08-10T16:42:53.931Z,1.33
2022-08-10T16:45:34.540Z,1.30
2022-08-10T16:48:02.050Z,1.40
2022-08-10T16:50:37.513Z,1.45
2022-08-10T16:53:06.904Z,1.45
2022-08-10T16:55:49.383Z,1.40
2022-08-10T16:58:27.484Z,1.30
2022-08-10T17:01:02.033Z,1.20
2022-08-10T17:04:08.087Z,1.92
2022-08-10T17:06:31.707Z,1.30
2022-08-10T17:09:01.224Z,1.75
2022-08-10T17:11:30.897Z,1.60
2022-08-10T17:13:59.252Z,1.20
2022-08-10T17:16:32.556Z,2.13
2022-08-10T17:18:59.755Z,1.80
2022-08-10T17:21:34.911Z,1.50
2022-08-10T17:24:03.804Z,1.70
2022-08-10T17:26:37.495Z,1.67
2022-08-10T17:29:58.886Z,1.48
2022-08-10T17:32:17.792Z,1.45
2022-08-10T17:34:51.704Z,1.30
2022-08-10T17:37:22.416Z,1.35
2022-08-10T17:39:59.489Z,1.77
2022-08-10T17:42:27.247Z,1.92
2022-08-10T17:44:55.174Z,1.50
2022-08-10T17:47:27.089Z,2.00
2022-08-10T17:49:58.341Z,1.77
2022-08-10T17:52:28.914Z,2.10
2022-08-10T17:55:00.704Z,2.65
2022-08-10T17:57:28.669Z,4.22
2022-08-10T18:00:00.736Z,4.30
2022-08-10T18:02:28.770Z,5.35
2022-08-10T18:04:58.596Z,3.05
2022-08-10T18:07:40.765Z,2.97
2022-08-10T18:10:09.891Z,2.35
2022-08-10T18:12:46.255Z,1.80
2022-08-10T18:15:16.335Z,1.77
2022-08-10T18:17:51.081Z,1.65
2022-08-10T18:20:27.840Z,2.00
2022-08-10T18:22:57.645Z,1.80
2022-08-10T18:25:38.475Z,1.65
2022-08-10T18:28:18.107Z,1.77
2022-08-10T18:30:52.564Z,1.48
2022-08-10T18:33:25.571Z,1.40
2022-08-10T18:35:53.324Z,1.92
2022-08-10T18:38:24.553Z,1.63
2022-08-10T18:40:56.851Z,2.28
2022-08-10T18:44:09.943Z,1.63
2022-08-10T18:46:21.555Z,1.85
2022-08-10T18:49:06.658Z,1.80
2022-08-10T18:51:46.688Z,2.10
2022-08-10T18:54:31.233Z,1.30
2022-08-10T18:57:23.725Z,1.73
2022-08-10T19:00:07.415Z,1.33
2022-08-10T19:02:44.788Z,1.50
2022-08-10T19:05:32.537Z,1.67
2022-08-10T19:08:27.110Z,1.35
2022-08-10T19:11:10.227Z,2.05
2022-08-10T19:14:02.670Z,1.83
2022-08-10T19:17:10.243Z,1.30
2022-08-10T19:19:50.631Z,1.67
2022-08-10T19:22:26.665Z,1.80
2022-08-10T19:26:41.622Z,1.92
2022-08-10T19:28:14.373Z,1.95
2022-08-10T19:30:57.574Z,2.20
2022-08-10T19:33:49.306Z,2.47
2022-08-10T19:36:44.728Z,1.90
2022-08-10T19:39:50.822Z,1.98
2022-08-10T19:42:48.434Z,1.70
2022-08-10T19:46:01.421Z,1.60
2022-08-10T19:48:52.507Z,1.75
2022-08-10T19:52:07.422Z,1.65
2022-08-10T19:55:09.014Z,2.20
2022-08-10T19:58:09.912Z,1.98
2022-08-10T20:01:03.876Z,1.83
2022-08-10T20:03:44.115Z,1.90
2022-08-10T20:06:20.421Z,2.00
2022-08-10T20:08:59.635Z,1.70
2022-08-10T20:11:46.087Z,2.30
2022-08-10T20:14:22.236Z,2.20
2022-08-10T20:17:03.396Z,3.55
2022-08-10T20:23:00.180Z,5.13
2022-08-10T20:25:45.132Z,2.20
2022-08-10T20:28:39.372Z,2.33
2022-08-10T20:31:11.513Z,1.90
2022-08-10T20:34:00.753Z,1.63
2022-08-10T20:36:49.440Z,2.38
2022-08-10T20:39:46.355Z,1.90
2022-08-10T20:43:05.226Z,2.13
2022-08-10T20:46:08.457Z,2.03
2022-08-10T20:48:55.068Z,2.20
2022-08-10T20:51:58.528Z,2.03
2022-08-10T20:54:17.901Z,1.75
2022-08-10T20:57:00.726Z,1.65
2022-08-10T20:59:33.482Z,1.77
2022-08-10T21:02:34.272Z,1.88
2022-08-10T21:05:18.247Z,2.03
2022-08-10T21:08:01.834Z,1.88
2022-08-10T21:10:56.117Z,1.60
2022-08-10T21:13:50.920Z,1.80
2022-08-10T21:16:28.629Z,1.65
2022-08-10T21:19:32.871Z,1.85
2022-08-10T21:22:16.604Z,2.03
2022-08-10T21:24:56.661Z,1.83
2022-08-10T21:27:41.070Z,2.08
2022-08-10T21:30:20.528Z,1.50
2022-08-10T21:33:02.609Z,1.80
2022-08-10T21:35:44.410Z,1.80
2022-08-10T21:38:28.592Z,1.88
2022-08-10T21:41:57.979Z,1.85
2022-08-10T21:45:08.192Z,2.00
2022-08-10T21:48:30.475Z,2.00
2022-08-10T21:51:23.944Z,1.85
2022-08-10T21:54:29.457Z,2.00
2022-08-10T21:57:43.563Z,2.13
2022-08-10T22:00:32.536Z,2.30
2022-08-10T22:03:22.212Z,1.60
2022-08-10T22:06:11.147Z,2.00
2022-08-10T22:09:00.764Z,1.90
2022-08-10T22:11:50.214Z,2.40
2022-08-10T22:14:51.242Z,1.88
2022-08-10T22:18:03.874Z,2.10
2022-08-10T22:20:50.293Z,2.03
2022-08-10T22:23:41.345Z,2.17
2022-08-10T22:26:56.533Z,2.13
2022-08-10T22:29:56.291Z,1.85
2022-08-10T22:33:34.209Z,2.25
2022-08-10T22:36:44.885Z,1.80
2022-08-10T22:40:11.512Z,1.85
2022-08-10T22:42:58.822Z,2.08
2022-08-10T22:45:56.531Z,1.95
2022-08-10T22:48:41.478Z,1.80
2022-08-10T22:51:22.959Z,1.85
2022-08-10T22:54:30.600Z,2.10
2022-08-10T22:57:18.527Z,2.33
2022-08-10T22:59:45.463Z,2.10
2022-08-10T23:02:21.805Z,2.15
2022-08-10T23:04:52.387Z,2.33
2022-08-10T23:07:21.602Z,2.50
2022-08-10T23:09:57.262Z,1.80
2022-08-10T23:12:51.286Z,2.03
2022-08-10T23:15:58.698Z,2.22
2022-08-10T23:18:53.159Z,2.30
2022-08-10T23:21:22.733Z,2.20
2022-08-10T23:23:53.527Z,2.47
2022-08-10T23:26:28.806Z,2.33
2022-08-10T23:29:09.575Z,1.83
2022-08-10T23:31:57.637Z,1.85
2022-08-10T23:34:31.193Z,2.40
2022-08-10T23:37:00.862Z,1.90
2022-08-10T23:39:38.059Z,2.22
2022-08-10T23:42:08.498Z,1.90
2022-08-10T23:44:40.394Z,1.95
2022-08-10T23:47:08.477Z,2.25
2022-08-10T23:49:36.828Z,2.13
2022-08-10T23:52:13.163Z,2.10
2022-08-10T23:54:55.930Z,2.33
2022-08-10T23:57:25.069Z,2.08
2022-08-10T23:59:57.468Z,2.13
